Time;durP1;ratioP1;P1;durP2;ratioP2;P2;SDS_P1;SDS_P2;PMS_P1;PMS_P2;Temp;Humidity;BMP_temperature;BMP_pressure;BME280_temperature;BME280_humidity;BME280_pressure;Samples;Min_cycle;Max_cycle;Signal;HPM_P1;HPM_P2
2022/12/04 00:01:52;;;;;;;5.70;5.10;;;19.10;60.10;;;;;;5064982;28;20584;-71
2022/12/04 00:04:20;;;;;;;5.97;5.40;;;19.10;60.10;;;;;;5066577;28;20454;-72
2022/12/04 00:06:50;;;;;;;5.60;5.10;;;19.10;60.10;;;;;;5071305;28;20457;-72
2022/12/04 00:09:25;;;;;;;6.20;5.60;;;19.10;60.10;;;;;;5062209;28;20454;-71
2022/12/04 00:11:53;;;;;;;6.13;5.13;;;19.00;60.10;;;;;;5056788;28;20466;-73
2022/12/04 00:14:22;;;;;;;6.40;5.73;;;19.10;60.10;;;;;;5054406;28;20453;-72
2022/12/04 00:16:50;;;;;;;7.00;5.80;;;19.10;60.10;;;;;;5060276;28;20463;-72
2022/12/04 00:19:18;;;;;;;6.40;5.77;;;19.10;60.10;;;;;;5064451;28;20462;-71
2022/12/04 00:21:48;;;;;;;6.63;6.00;;;19.00;60.10;;;;;;5061816;28;20490;-71
2022/12/04 00:24:18;;;;;;;5.90;4.97;;;19.10;60.10;;;;;;5064742;28;20464;-71
2022/12/04 00:26:46;;;;;;;6.20;5.20;;;19.00;60.10;;;;;;5062330;28;20464;-71
2022/12/04 00:29:14;;;;;;;7.43;5.77;;;19.00;60.10;;;;;;5069433;28;20546;-72
2022/12/04 00:31:43;;;;;;;7.27;6.30;;;19.10;60.20;;;;;;5071513;28;20552;-73
2022/12/04 00:34:11;;;;;;;6.63;5.80;;;19.00;60.10;;;;;;5059051;28;20458;-72
2022/12/04 00:36:39;;;;;;;6.30;5.50;;;19.00;60.20;;;;;;5075364;28;20457;-70
2022/12/04 00:39:07;;;;;;;6.07;5.57;;;19.00;60.10;;;;;;5058373;28;20515;-71
2022/12/04 00:41:37;;;;;;;6.37;5.77;;;19.00;60.10;;;;;;5058954;28;20555;-72
2022/12/04 00:44:06;;;;;;;6.50;5.90;;;19.00;60.10;;;;;;5066099;28;20573;-72
2022/12/04 00:46:34;;;;;;;7.13;6.23;;;19.00;60.10;;;;;;5057900;28;20458;-72
2022/12/04 00:49:02;;;;;;;6.73;6.07;;;19.00;60.20;;;;;;5069778;28;20469;-72
2022/12/04 00:51:30;;;;;;;6.90;5.83;;;19.00;60.10;;;;;;5072340;28;20465;-71
2022/12/04 00:53:59;;;;;;;5.80;5.30;;;19.00;60.10;;;;;;5062682;28;20973;-73
2022/12/04 00:56:28;;;;;;;6.10;5.50;;;19.00;60.10;;;;;;5065217;28;20450;-73
2022/12/04 00:59:00;;;;;;;6.20;5.60;;;19.00;60.10;;;;;;5054190;28;20783;-73
2022/12/04 01:01:29;;;;;;;6.90;5.00;;;19.00;60.10;;;;;;5059283;28;20496;-72
2022/12/04 01:03:57;;;;;;;6.43;5.83;;;19.00;60.00;;;;;;5071119;28;20470;-72
2022/12/04 01:06:28;;;;;;;7.10;5.40;;;19.00;60.00;;;;;;5066126;28;20525;-71
2022/12/04 01:08:57;;;;;;;5.87;5.27;;;19.00;60.00;;;;;;5057521;28;20556;-71
2022/12/04 01:11:27;;;;;;;5.60;4.70;;;19.00;59.90;;;;;;5065203;28;20504;-72
2022/12/04 01:13:58;;;;;;;5.53;5.00;;;19.00;59.90;;;;;;5062036;28;20554;-71
2022/12/04 01:16:28;;;;;;;7.40;5.77;;;19.00;59.90;;;;;;5065390;28;20460;-71
2022/12/04 01:18:57;;;;;;;5.73;5.07;;;19.00;59.80;;;;;;5060451;28;20542;-72
2022/12/04 01:21:25;;;;;;;6.47;5.87;;;19.00;59.80;;;;;;5057063;28;20521;-72
2022/12/04 01:23:53;;;;;;;6.73;5.80;;;19.00;59.80;;;;;;5052554;28;20566;-71
2022/12/04 01:26:21;;;;;;;7.07;6.37;;;19.00;59.70;;;;;;5052865;28;21519;-71
2022/12/04 01:28:49;;;;;;;6.40;5.80;;;19.00;59.70;;;;;;5054343;28;20559;-71
2022/12/04 01:31:20;;;;;;;6.10;5.50;;;19.00;59.70;;;;;;5052767;28;20456;-69
2022/12/04 01:33:50;;;;;;;6.67;6.00;;;19.00;59.70;;;;;;5065396;28;20478;-72
2022/12/04 01:36:20;;;;;;;5.83;5.27;;;19.00;59.60;;;;;;5054413;28;20452;-70
2022/12/04 01:38:49;;;;;;;7.37;6.37;;;19.00;59.60;;;;;;5052513;28;20577;-71
2022/12/04 01:41:19;;;;;;;5.97;5.20;;;19.00;59.60;;;;;;5072767;28;20476;-71
2022/12/04 01:44:06;;;;;;;6.53;5.67;;;19.00;59.60;;;;;;5062201;28;20478;-72
2022/12/04 01:46:36;;;;;;;6.20;5.20;;;19.00;59.50;;;;;;5061509;28;20868;-71
2022/12/04 01:49:06;;;;;;;6.63;5.27;;;19.00;59.50;;;;;;5060786;28;20574;-72
2022/12/04 01:51:39;;;;;;;5.63;5.00;;;19.00;59.60;;;;;;5071936;28;20455;-71
2022/12/04 01:54:11;;;;;;;7.37;5.73;;;19.00;59.60;;;;;;5071803;28;20769;-71
2022/12/04 01:56:43;;;;;;;5.53;5.03;;;19.00;59.60;;;;;;5055946;28;20474;-71
2022/12/04 01:59:13;;;;;;;5.83;5.33;;;19.00;59.60;;;;;;5066849;28;20545;-71
2022/12/04 02:01:49;;;;;;;6.43;5.83;;;19.00;59.50;;;;;;5071691;28;20542;-72
2022/12/04 02:04:17;;;;;;;6.20;5.60;;;19.00;59.60;;;;;;5070588;28;20624;-73
2022/12/04 02:06:45;;;;;;;6.90;5.20;;;19.00;59.50;;;;;;5053368;28;20566;-71
2022/12/04 02:09:14;;;;;;;6.47;5.80;;;19.00;59.60;;;;;;5055058;28;20462;-72
2022/12/04 02:11:51;;;;;;;6.37;5.43;;;19.00;59.50;;;;;;5053945;28;20495;-72
2022/12/04 02:14:30;;;;;;;5.93;5.43;;;19.00;59.50;;;;;;5064547;28;20549;-72
2022/12/04 02:17:11;;;;;;;6.90;5.13;;;19.00;59.50;;;;;;5055033;28;20993;-72
2022/12/04 02:19:57;;;;;;;6.20;5.60;;;19.00;59.50;;;;;;5054362;28;20474;-71
2022/12/04 02:22:43;;;;;;;5.40;4.90;;;19.00;59.50;;;;;;5050705;28;21309;-71
2022/12/04 02:25:23;;;;;;;5.93;5.40;;;19.00;59.60;;;;;;5060308;28;21346;-71
2022/12/04 02:28:08;;;;;;;6.13;5.50;;;19.00;59.60;;;;;;5052521;28;20846;-71
2022/12/04 02:30:40;;;;;;;6.17;5.40;;;19.00;59.60;;;;;;5055551;28;20554;-72
2022/12/04 02:33:18;;;;;;;6.40;5.80;;;19.00;59.60;;;;;;5056448;28;20455;-71
2022/12/04 02:35:50;;;;;;;6.20;5.10;;;19.00;59.60;;;;;;5052071;28;20459;-72
2022/12/04 02:38:24;;;;;;;5.73;5.13;;;19.00;59.60;;;;;;5052822;28;20575;-72
2022/12/04 02:40:58;;;;;;;5.70;4.87;;;19.00;59.60;;;;;;5067352;28;20591;-72
2022/12/04 02:43:32;;;;;;;5.30;4.80;;;19.00;59.60;;;;;;5067951;28;20517;-72
2022/12/04 02:46:05;;;;;;;5.83;5.23;;;19.00;59.60;;;;;;5070155;28;20479;-72
2022/12/04 02:48:40;;;;;;;5.70;5.20;;;19.00;59.60;;;;;;5068459;28;20989;-72
2022/12/04 02:51:10;;;;;;;5.50;5.03;;;19.00;59.60;;;;;;5054499;28;20885;-72
2022/12/04 02:53:43;;;;;;;5.77;5.17;;;19.00;59.70;;;;;;5068715;28;20515;-70
2022/12/04 02:56:15;;;;;;;6.50;5.60;;;18.90;59.60;;;;;;5061605;28;20487;-72
2022/12/04 02:58:49;;;;;;;6.57;5.53;;;19.00;59.60;;;;;;5062396;28;20462;-72
2022/12/04 03:01:24;;;;;;;5.73;5.20;;;19.00;59.60;;;;;;5048694;28;20546;-72
2022/12/04 03:03:57;;;;;;;6.10;5.50;;;18.90;59.60;;;;;;5054312;28;20474;-72
2022/12/04 03:06:29;;;;;;;6.60;6.00;;;18.90;59.60;;;;;;5051441;28;20547;-71
2022/12/04 03:09:02;;;;;;;6.23;5.60;;;18.90;59.60;;;;;;5060268;28;20459;-71
2022/12/04 03:11:33;;;;;;;7.43;5.93;;;18.90;59.60;;;;;;5051296;28;20459;-71
2022/12/04 03:14:10;;;;;;;5.53;5.03;;;18.90;59.60;;;;;;5051608;28;20866;-72
2022/12/04 03:16:41;;;;;;;5.90;5.17;;;19.00;59.60;;;;;;5053146;28;20466;-71
2022/12/04 03:19:14;;;;;;;6.37;5.70;;;19.00;59.60;;;;;;5057991;28;20864;-72
2022/12/04 03:21:47;;;;;;;6.87;5.63;;;18.90;59.60;;;;;;5067955;28;20493;-72
2022/12/04 03:24:21;;;;;;;6.37;4.90;;;18.90;59.60;;;;;;5060693;28;20476;-73
2022/12/04 03:26:52;;;;;;;6.30;4.97;;;18.90;59.60;;;;;;5064817;28;20474;-70
2022/12/04 03:29:24;;;;;;;5.90;5.40;;;18.90;59.60;;;;;;5069605;28;20577;-71
2022/12/04 03:32:01;;;;;;;5.93;5.33;;;18.90;59.60;;;;;;5063155;28;20973;-71
2022/12/04 03:34:35;;;;;;;6.87;6.17;;;18.90;59.60;;;;;;5070453;28;20537;-71
2022/12/04 03:37:09;;;;;;;4.97;4.50;;;18.90;59.60;;;;;;5063892;28;20461;-71
2022/12/04 03:39:43;;;;;;;5.63;5.07;;;18.90;59.60;;;;;;5059841;28;20529;-71
2022/12/04 03:42:18;;;;;;;4.67;4.23;;;18.90;59.50;;;;;;5051972;28;20554;-70
2022/12/04 03:44:53;;;;;;;5.73;5.13;;;18.90;59.50;;;;;;5062318;28;20501;-70
2022/12/04 03:47:29;;;;;;;7.67;6.20;;;18.90;59.50;;;;;;5062854;28;20587;-71
2022/12/04 03:50:02;;;;;;;7.00;5.50;;;18.90;59.50;;;;;;5063920;28;20886;-71
2022/12/04 03:52:40;;;;;;;4.80;4.40;;;18.90;59.40;;;;;;5054574;28;20455;-72
2022/12/04 03:55:15;;;;;;;5.63;5.03;;;18.90;59.40;;;;;;5049645;28;20600;-71
2022/12/04 03:57:46;;;;;;;6.60;5.70;;;18.90;59.40;;;;;;5056910;28;20465;-70
2022/12/04 04:00:19;;;;;;;6.10;5.50;;;18.90;59.30;;;;;;5068493;28;20460;-71
2022/12/04 04:02:52;;;;;;;5.57;5.07;;;18.90;59.30;;;;;;5050656;28;20455;-71
2022/12/04 04:05:21;;;;;;;6.07;5.07;;;18.90;59.20;;;;;;5057547;28;20807;-71
2022/12/04 04:07:53;;;;;;;4.70;4.23;;;18.90;59.20;;;;;;5071190;28;20549;-70
2022/12/04 04:10:25;;;;;;;6.63;6.00;;;18.90;59.10;;;;;;5060751;28;20465;-72
2022/12/04 04:24:18;;;;;;;5.30;4.43;;;18.90;59.00;;;;;;5068886;28;20466;-70
2022/12/04 04:26:49;;;;;;;4.70;4.30;;;18.90;59.00;;;;;;5050608;28;20466;-71
2022/12/04 04:29:17;;;;;;;6.73;6.10;;;18.90;59.00;;;;;;5061540;28;20488;-72
2022/12/04 04:31:56;;;;;;;5.60;5.10;;;18.90;59.00;;;;;;5071328;28;20470;-71
2022/12/04 04:34:32;;;;;;;5.60;5.00;;;18.90;58.90;;;;;;5052358;28;20855;-71
2022/12/04 04:37:06;;;;;;;5.80;5.20;;;18.90;58.90;;;;;;5064436;28;20834;-71
2022/12/04 04:39:39;;;;;;;5.23;4.80;;;18.90;58.90;;;;;;5060148;28;20453;-71
2022/12/04 04:42:16;;;;;;;5.33;4.80;;;18.90;58.90;;;;;;5055892;28;20489;-72
2022/12/04 04:44:50;;;;;;;6.17;5.30;;;18.90;58.90;;;;;;5057192;28;20473;-71
2022/12/04 04:47:27;;;;;;;5.90;5.00;;;18.90;58.80;;;;;;5058799;28;20514;-72
2022/12/04 04:49:57;;;;;;;5.50;5.00;;;18.90;58.80;;;;;;5054779;28;20532;-71
2022/12/04 04:52:25;;;;;;;4.70;4.23;;;18.90;58.80;;;;;;5055303;28;20463;-72
2022/12/04 04:54:53;;;;;;;6.13;5.37;;;18.90;58.80;;;;;;5074539;28;20510;-71
2022/12/04 04:57:29;;;;;;;5.27;4.77;;;18.90;58.80;;;;;;5058220;28;20567;-72
2022/12/04 04:59:57;;;;;;;5.07;4.57;;;18.90;58.70;;;;;;5072966;28;20537;-71
2022/12/04 05:02:29;;;;;;;5.10;4.60;;;18.90;58.80;;;;;;5061474;28;20458;-71
2022/12/04 05:04:57;;;;;;;5.33;4.83;;;18.90;58.70;;;;;;5055909;28;20471;-71
2022/12/04 05:07:25;;;;;;;4.97;4.10;;;18.90;58.70;;;;;;5056868;28;20457;-72
2022/12/04 05:09:53;;;;;;;4.73;4.30;;;18.90;58.70;;;;;;5065127;28;20968;-71
2022/12/04 05:12:22;;;;;;;4.90;4.40;;;18.80;58.70;;;;;;5067018;28;20548;-73
2022/12/04 05:14:50;;;;;;;5.20;4.70;;;18.90;58.70;;;;;;5054501;28;20445;-73
2022/12/04 05:17:18;;;;;;;5.00;4.50;;;18.90;58.70;;;;;;5053038;28;20496;-72
2022/12/04 05:19:54;;;;;;;5.67;5.07;;;18.90;58.60;;;;;;5056865;28;20450;-72
2022/12/04 05:22:27;;;;;;;4.90;4.40;;;18.90;58.60;;;;;;5064848;28;20505;-72
2022/12/04 05:24:56;;;;;;;4.37;4.03;;;18.90;58.60;;;;;;5073850;28;20455;-72
2022/12/04 05:27:25;;;;;;;5.50;4.40;;;18.90;58.60;;;;;;5061296;28;20554;-72
2022/12/04 05:29:53;;;;;;;4.50;4.10;;;18.90;58.60;;;;;;5054220;28;20848;-72
2022/12/04 05:32:23;;;;;;;4.80;4.40;;;18.90;58.60;;;;;;5060999;28;20522;-71
2022/12/04 05:34:54;;;;;;;5.27;4.73;;;18.80;58.60;;;;;;5056719;28;20863;-73
2022/12/04 05:37:23;;;;;;;5.57;5.03;;;18.80;58.60;;;;;;5054620;28;20479;-73
2022/12/04 05:39:53;;;;;;;4.67;4.27;;;18.80;58.60;;;;;;5053829;28;20440;-71
2022/12/04 05:42:22;;;;;;;5.67;4.50;;;18.80;58.60;;;;;;5054735;28;20463;-71
2022/12/04 05:44:50;;;;;;;4.87;4.37;;;18.80;58.60;;;;;;5055713;28;20501;-71
2022/12/04 05:47:18;;;;;;;5.20;4.37;;;18.80;58.60;;;;;;5054602;28;20515;-71
2022/12/04 05:49:46;;;;;;;5.20;4.70;;;18.80;58.60;;;;;;5054318;28;20959;-71
2022/12/04 05:52:16;;;;;;;5.47;5.07;;;18.80;58.60;;;;;;5056065;28;20978;-71
2022/12/04 05:54:44;;;;;;;5.40;4.97;;;18.80;58.50;;;;;;5054541;28;20459;-70
2022/12/04 05:57:12;;;;;;;5.00;4.50;;;18.80;58.60;;;;;;5061135;28;20466;-71
2022/12/04 05:59:40;;;;;;;3.90;3.60;;;18.80;58.60;;;;;;5059487;28;20542;-70
2022/12/04 06:02:08;;;;;;;5.27;4.77;;;18.80;58.50;;;;;;5056336;28;20490;-69
2022/12/04 06:04:37;;;;;;;4.50;4.10;;;18.80;58.50;;;;;;5052715;28;20959;-71
2022/12/04 06:07:05;;;;;;;4.80;4.40;;;18.80;58.50;;;;;;5056852;28;20490;-71
2022/12/04 06:09:35;;;;;;;5.27;4.77;;;18.80;58.60;;;;;;5055545;28;20443;-71
2022/12/04 06:12:04;;;;;;;4.50;4.07;;;18.80;58.50;;;;;;5058208;28;20500;-72
2022/12/04 06:14:32;;;;;;;3.70;3.27;;;18.80;58.50;;;;;;5056169;28;20550;-71
2022/12/04 06:17:06;;;;;;;6.87;4.80;;;18.80;58.50;;;;;;5058352;28;20470;-72
2022/12/04 06:19:35;;;;;;;4.80;3.80;;;18.80;58.60;;;;;;5053792;28;20546;-72
2022/12/04 06:22:03;;;;;;;4.73;4.33;;;18.80;58.50;;;;;;5057480;28;20557;-72
2022/12/04 06:24:31;;;;;;;5.17;4.50;;;18.80;58.50;;;;;;5056871;28;20574;-72
2022/12/04 06:27:01;;;;;;;4.60;4.20;;;18.80;58.50;;;;;;5058897;28;20550;-71
2022/12/04 06:29:49;;;;;;;4.13;3.73;;;18.80;58.50;;;;;;5057819;28;20458;-72
2022/12/04 06:32:20;;;;;;;4.57;4.27;;;18.80;58.50;;;;;;5057892;28;20560;-71
2022/12/04 06:34:52;;;;;;;4.10;3.70;;;18.80;58.50;;;;;;5056305;28;20534;-71
2022/12/04 06:37:23;;;;;;;4.83;4.33;;;18.80;58.50;;;;;;5057205;28;20456;-69
2022/12/04 06:39:51;;;;;;;6.83;4.73;;;18.80;58.50;;;;;;5057452;28;20527;-71
2022/12/04 06:42:21;;;;;;;5.80;5.30;;;18.80;58.50;;;;;;5056944;28;20490;-72
2022/12/04 06:44:49;;;;;;;5.33;4.70;;;18.80;58.50;;;;;;5052009;28;20530;-71
2022/12/04 06:47:17;;;;;;;4.80;4.37;;;18.80;58.50;;;;;;5052333;28;20480;-71
2022/12/04 06:49:49;;;;;;;5.30;4.40;;;18.80;58.50;;;;;;5055702;28;20458;-70
2022/12/04 06:52:18;;;;;;;5.23;4.73;;;18.80;58.50;;;;;;5053863;28;20456;-72
2022/12/04 06:54:46;;;;;;;5.07;4.57;;;18.80;58.40;;;;;;5056783;28;21791;-72
2022/12/04 06:57:14;;;;;;;4.87;4.33;;;18.80;58.50;;;;;;5054582;28;20455;-73
2022/12/04 06:59:44;;;;;;;4.50;4.10;;;18.80;58.50;;;;;;5053046;28;20985;-71
2022/12/04 07:02:12;;;;;;;5.40;4.90;;;18.80;58.50;;;;;;5052772;28;20935;-72
2022/12/04 07:04:40;;;;;;;4.47;4.07;;;18.80;58.50;;;;;;5051920;28;20482;-72
2022/12/04 07:07:09;;;;;;;4.60;4.20;;;18.80;58.50;;;;;;5055059;28;20491;-71
2022/12/04 07:09:38;;;;;;;4.50;4.10;;;18.80;58.50;;;;;;5056366;28;20494;-72
2022/12/04 07:12:06;;;;;;;5.07;4.57;;;18.80;58.50;;;;;;5055127;28;20950;-71
2022/12/04 07:14:35;;;;;;;5.10;4.43;;;18.80;58.50;;;;;;5056070;28;20487;-73
2022/12/04 07:17:04;;;;;;;4.63;4.23;;;18.80;58.50;;;;;;5059536;28;20535;-71
2022/12/04 07:19:33;;;;;;;5.10;4.60;;;18.80;58.50;;;;;;5057973;28;20954;-69
2022/12/04 07:22:01;;;;;;;5.40;4.50;;;18.80;58.50;;;;;;5055088;28;20885;-69
2022/12/04 07:24:29;;;;;;;5.30;4.80;;;18.80;58.70;;;;;;5061494;28;21017;-70
2022/12/04 07:26:57;;;;;;;5.53;4.40;;;18.80;59.10;;;;;;5058524;28;20784;-69
2022/12/04 07:29:25;;;;;;;5.23;4.07;;;18.80;59.40;;;;;;5054811;28;20542;-70
2022/12/04 07:31:54;;;;;;;4.53;4.10;;;18.80;59.40;;;;;;5055388;28;20954;-71
2022/12/04 07:34:23;;;;;;;4.40;4.00;;;18.80;59.80;;;;;;5054160;28;20860;-70
2022/12/04 07:36:52;;;;;;;4.63;4.23;;;18.80;59.80;;;;;;5059510;28;21883;-71
2022/12/04 07:39:20;;;;;;;5.20;4.70;;;18.80;59.90;;;;;;5055302;28;20822;-70
2022/12/04 07:41:48;;;;;;;7.77;4.83;;;18.80;59.90;;;;;;5051862;28;20455;-70
2022/12/04 07:44:16;;;;;;;5.97;5.40;;;18.80;59.90;;;;;;5049243;28;20489;-69
2022/12/04 07:46:44;;;;;;;5.33;4.83;;;18.80;59.90;;;;;;5054300;28;20482;-68
2022/12/04 07:49:13;;;;;;;5.03;4.53;;;18.80;59.90;;;;;;5054744;28;20581;-67
2022/12/04 07:51:42;;;;;;;7.33;4.20;;;18.80;60.00;;;;;;5055666;28;20481;-67
2022/12/04 07:54:11;;;;;;;7.27;5.00;;;18.80;60.10;;;;;;5056462;28;20553;-68
2022/12/04 07:56:39;;;;;;;5.03;4.60;;;18.80;60.20;;;;;;5053002;28;20461;-68
2022/12/04 07:59:07;;;;;;;6.57;4.50;;;18.70;60.30;;;;;;5052139;28;20521;-68
2022/12/04 08:01:35;;;;;;;5.57;4.57;;;18.70;60.30;;;;;;5059044;28;20491;-68
2022/12/04 08:04:04;;;;;;;4.57;4.17;;;18.70;60.40;;;;;;5057854;28;20997;-68
2022/12/04 08:06:34;;;;;;;4.73;4.33;;;18.70;60.50;;;;;;5059427;28;20700;-68
2022/12/04 08:09:03;;;;;;;5.37;4.57;;;18.60;60.60;;;;;;5058037;28;20498;-67
2022/12/04 08:11:37;;;;;;;4.87;4.27;;;18.60;60.60;;;;;;5053423;28;21023;-68
2022/12/04 08:14:07;;;;;;;7.57;4.03;;;18.60;60.80;;;;;;5052704;28;20451;-68
2022/12/04 08:16:35;;;;;;;4.33;3.93;;;18.60;60.80;;;;;;5052779;28;20521;-68
2022/12/04 08:19:04;;;;;;;3.87;3.50;;;18.60;60.90;;;;;;5058966;28;20474;-67
2022/12/04 08:21:33;;;;;;;4.70;4.20;;;18.60;60.90;;;;;;5066537;28;20525;-69
2022/12/04 08:24:03;;;;;;;4.67;4.00;;;18.60;60.90;;;;;;5056418;28;20518;-68
2022/12/04 08:26:32;;;;;;;5.27;4.10;;;18.60;61.00;;;;;;5065635;28;20560;-68
2022/12/04 08:29:01;;;;;;;5.20;4.70;;;18.60;61.00;;;;;;5065586;28;20580;-68
2022/12/04 08:31:31;;;;;;;4.10;3.80;;;18.50;61.10;;;;;;5061670;28;20959;-68
2022/12/04 08:34:02;;;;;;;4.03;3.73;;;18.50;61.10;;;;;;5062716;28;20458;-68
2022/12/04 08:36:31;;;;;;;4.73;4.33;;;18.50;61.10;;;;;;5058325;28;20881;-68
2022/12/04 08:38:59;;;;;;;5.03;3.27;;;18.50;61.10;;;;;;5063960;28;20582;-68
2022/12/04 08:41:29;;;;;;;3.87;3.57;;;18.50;61.20;;;;;;5056838;28;20553;-68
2022/12/04 08:43:58;;;;;;;4.40;3.63;;;18.50;61.20;;;;;;5071922;28;20493;-67
2022/12/04 08:46:27;;;;;;;5.03;3.67;;;18.50;61.20;;;;;;5064613;28;20573;-68
2022/12/04 08:48:56;;;;;;;4.37;3.60;;;18.50;61.30;;;;;;5056181;28;20498;-68
2022/12/04 08:51:27;;;;;;;4.77;4.27;;;18.50;61.30;;;;;;5056859;28;20467;-68
2022/12/04 08:53:56;;;;;;;3.67;3.37;;;18.50;61.30;;;;;;5061527;28;20812;-67
2022/12/04 08:56:26;;;;;;;4.33;4.00;;;18.50;61.30;;;;;;5057578;28;20530;-68
2022/12/04 08:58:57;;;;;;;4.90;4.40;;;18.50;61.30;;;;;;5055361;28;20552;-68
2022/12/04 09:01:27;;;;;;;5.73;3.93;;;18.50;61.40;;;;;;5058640;28;20549;-68
2022/12/04 09:03:56;;;;;;;4.60;4.20;;;18.50;61.40;;;;;;5059288;28;20466;-68
2022/12/04 09:06:24;;;;;;;3.80;3.50;;;18.50;61.40;;;;;;5074885;28;20466;-68
2022/12/04 09:08:54;;;;;;;4.20;3.80;;;18.50;61.40;;;;;;5074785;28;20849;-68
2022/12/04 09:11:25;;;;;;;4.10;3.77;;;18.50;61.40;;;;;;5066202;28;20442;-68
2022/12/04 09:13:54;;;;;;;4.37;3.97;;;18.40;61.40;;;;;;5056085;28;21018;-68
2022/12/04 09:16:25;;;;;;;4.30;3.90;;;18.40;61.40;;;;;;5056267;28;20946;-68
2022/12/04 09:18:54;;;;;;;4.30;3.90;;;18.40;61.50;;;;;;5059889;28;20969;-68
2022/12/04 09:21:24;;;;;;;4.83;3.70;;;18.40;61.50;;;;;;5061084;28;21305;-68
2022/12/04 09:23:52;;;;;;;4.03;3.60;;;18.50;61.50;;;;;;5057838;28;20498;-68
2022/12/04 09:26:23;;;;;;;3.70;3.40;;;18.50;61.50;;;;;;5056945;28;20962;-68
2022/12/04 09:28:53;;;;;;;4.30;3.87;;;18.40;61.50;;;;;;5072523;28;20857;-68
2022/12/04 09:31:22;;;;;;;4.50;4.10;;;18.40;61.50;;;;;;5062112;28;20978;-68
2022/12/04 09:33:52;;;;;;;4.13;3.73;;;18.40;61.50;;;;;;5062629;28;20466;-68
2022/12/04 09:36:20;;;;;;;4.27;3.87;;;18.40;61.60;;;;;;5058983;28;20486;-68
2022/12/04 09:38:50;;;;;;;4.30;3.90;;;18.40;61.60;;;;;;5063427;28;20483;-68
2022/12/04 09:41:40;;;;;;;4.13;3.77;;;18.40;61.60;;;;;;5065135;28;20458;-68
2022/12/04 09:44:14;;;;;;;4.33;3.93;;;18.40;61.60;;;;;;5059317;28;20550;-68
2022/12/04 09:46:48;;;;;;;3.93;3.53;;;18.40;61.70;;;;;;5053431;28;20484;-68
2022/12/04 09:49:25;;;;;;;4.00;3.70;;;18.40;61.60;;;;;;5057158;28;20589;-68
2022/12/04 09:51:57;;;;;;;3.77;3.47;;;18.40;61.70;;;;;;5055166;28;20454;-67
2022/12/04 09:54:31;;;;;;;3.90;3.60;;;18.40;61.70;;;;;;5051235;28;20505;-68
2022/12/04 09:57:04;;;;;;;4.30;3.90;;;18.40;61.70;;;;;;5054677;28;20580;-68
2022/12/04 09:59:33;;;;;;;3.90;3.50;;;18.40;61.70;;;;;;5054253;28;20466;-67
2022/12/04 10:02:15;;;;;;;3.47;3.20;;;18.40;61.70;;;;;;5055420;28;20457;-68
2022/12/04 10:04:45;;;;;;;3.73;3.40;;;18.40;61.70;;;;;;5064605;28;20949;-68
2022/12/04 10:07:16;;;;;;;3.40;3.10;;;18.40;61.70;;;;;;5056306;28;20475;-68
2022/12/04 10:09:50;;;;;;;3.47;3.17;;;18.40;61.80;;;;;;5052333;28;20490;-67
2022/12/04 10:12:25;;;;;;;3.47;3.17;;;18.40;61.80;;;;;;5060744;28;20495;-67
2022/12/04 10:15:07;;;;;;;3.73;3.33;;;18.40;61.80;;;;;;5059336;28;20494;-68
2022/12/04 10:17:47;;;;;;;3.40;2.70;;;18.40;61.90;;;;;;5068982;28;20921;-67
2022/12/04 10:20:37;;;;;;;3.80;3.40;;;18.30;61.90;;;;;;5057235;28;20489;-68
2022/12/04 10:23:11;;;;;;;2.77;2.53;;;18.30;61.90;;;;;;5055853;28;20874;-68
2022/12/04 10:25:42;;;;;;;5.13;3.40;;;18.30;61.90;;;;;;5056299;28;20458;-68
2022/12/04 10:28:21;;;;;;;3.70;3.40;;;18.30;61.90;;;;;;5056067;28;20509;-66
2022/12/04 10:30:51;;;;;;;3.03;2.67;;;18.30;61.90;;;;;;5052362;28;20465;-66
2022/12/04 10:33:23;;;;;;;3.60;3.30;;;18.30;61.90;;;;;;5056026;28;20458;-66
2022/12/04 10:35:55;;;;;;;3.20;3.00;;;18.30;61.90;;;;;;5054472;28;20490;-66
2022/12/04 10:38:34;;;;;;;3.13;2.83;;;18.30;62.00;;;;;;5057319;28;20491;-66
2022/12/04 10:41:06;;;;;;;3.40;3.13;;;18.30;62.00;;;;;;5060652;28;20491;-66
2022/12/04 10:43:44;;;;;;;3.33;3.03;;;18.30;62.00;;;;;;5058268;28;20451;-66
2022/12/04 10:46:16;;;;;;;3.33;3.03;;;18.30;62.00;;;;;;5063218;28;20454;-68
2022/12/04 10:48:47;;;;;;;3.30;3.10;;;18.30;62.00;;;;;;5058159;28;20501;-66
2022/12/04 10:51:20;;;;;;;3.23;2.93;;;18.30;62.00;;;;;;5056804;28;20446;-66
2022/12/04 10:53:49;;;;;;;5.43;3.47;;;18.30;62.10;;;;;;5062327;28;20463;-66
2022/12/04 10:56:20;;;;;;;3.00;2.70;;;18.30;62.10;;;;;;5058906;28;20466;-67
2022/12/04 10:59:01;;;;;;;3.13;2.93;;;18.30;62.10;;;;;;5059086;28;20873;-66
2022/12/04 11:01:31;;;;;;;3.43;3.13;;;18.30;62.10;;;;;;5056152;28;20458;-66
2022/12/04 11:04:02;;;;;;;3.03;2.67;;;18.30;62.10;;;;;;5054798;28;20469;-67
2022/12/04 11:06:32;;;;;;;3.70;3.30;;;18.30;62.10;;;;;;5062145;28;20478;-67
2022/12/04 11:09:03;;;;;;;3.50;3.23;;;18.30;62.10;;;;;;5052022;28;20470;-66
2022/12/04 11:11:34;;;;;;;3.90;3.47;;;18.30;62.10;;;;;;5055042;28;20545;-66
2022/12/04 11:14:04;;;;;;;5.23;3.17;;;18.30;62.20;;;;;;5054200;28;20571;-66
2022/12/04 11:16:37;;;;;;;3.20;2.90;;;18.30;62.20;;;;;;5054418;28;20613;-66
2022/12/04 11:19:23;;;;;;;3.10;2.87;;;18.30;62.20;;;;;;5054336;28;20945;-66
2022/12/04 11:21:54;;;;;;;3.50;3.20;;;18.30;62.20;;;;;;5052292;28;20458;-67
2022/12/04 11:24:26;;;;;;;3.00;2.70;;;18.30;62.20;;;;;;5054093;28;20566;-66
2022/12/04 11:26:55;;;;;;;3.63;3.23;;;18.30;62.20;;;;;;5059135;28;20462;-66
2022/12/04 11:29:30;;;;;;;3.57;3.27;;;18.30;62.20;;;;;;5052424;28;20514;-66
2022/12/04 11:32:00;;;;;;;3.23;2.93;;;18.30;62.20;;;;;;5050054;28;20542;-66
2022/12/04 11:34:37;;;;;;;3.30;3.00;;;18.30;62.20;;;;;;5052319;28;20455;-66
2022/12/04 11:37:18;;;;;;;2.37;2.17;;;18.30;62.30;;;;;;5056807;28;20549;-66
2022/12/04 11:39:47;;;;;;;4.03;3.37;;;18.30;62.30;;;;;;5051837;28;20546;-66
2022/12/04 11:42:19;;;;;;;3.60;3.30;;;18.30;62.30;;;;;;5053349;28;20466;-66
2022/12/04 11:44:53;;;;;;;2.53;2.33;;;18.30;62.30;;;;;;5053016;28;20447;-66
2022/12/04 11:47:24;;;;;;;2.77;2.53;;;18.30;62.30;;;;;;5051352;28;20482;-66
2022/12/04 11:50:02;;;;;;;2.53;2.33;;;18.30;62.30;;;;;;5055473;28;20516;-67
2022/12/04 11:52:46;;;;;;;2.90;2.70;;;18.20;62.30;;;;;;5057512;28;20515;-66
2022/12/04 11:55:22;;;;;;;2.87;2.67;;;18.20;62.30;;;;;;5054535;28;20454;-66
2022/12/04 11:58:11;;;;;;;3.07;2.87;;;18.20;62.30;;;;;;5059517;28;20465;-66
2022/12/04 12:00:50;;;;;;;3.27;3.00;;;18.20;62.30;;;;;;5068468;28;20442;-66
2022/12/04 12:03:26;;;;;;;2.77;2.53;;;18.20;62.30;;;;;;5064702;28;20468;-66
2022/12/04 12:06:07;;;;;;;4.30;4.00;;;18.20;62.30;;;;;;5059238;28;20454;-69
2022/12/04 12:08:55;;;;;;;4.00;3.60;;;18.20;63.00;;;;;;5061642;28;20536;-69
2022/12/04 12:11:30;;;;;;;5.27;4.10;;;18.30;63.50;;;;;;5055780;28;20543;-68
2022/12/04 12:14:07;;;;;;;6.77;5.00;;;18.30;63.60;;;;;;5062230;28;21084;-70
2022/12/04 12:16:47;;;;;;;5.27;3.97;;;18.40;63.70;;;;;;5061692;28;21729;-69
2022/12/04 12:19:49;;;;;;;8.73;5.47;;;18.40;63.60;;;;;;5058048;28;20459;-68
2022/12/04 12:22:31;;;;;;;8.10;5.17;;;18.50;63.60;;;;;;5058478;28;20509;-69
2022/12/04 12:25:09;;;;;;;6.00;4.90;;;18.50;63.50;;;;;;5057118;28;20446;-70
2022/12/04 12:27:50;;;;;;;8.57;4.90;;;18.60;63.60;;;;;;5059390;28;20542;-70
2022/12/04 12:30:21;;;;;;;9.33;6.13;;;18.60;63.60;;;;;;5057326;28;20457;-68
2022/12/04 12:33:04;;;;;;;7.57;5.30;;;18.60;63.60;;;;;;5066173;28;20458;-69
2022/12/04 12:35:37;;;;;;;7.73;6.53;;;18.70;63.60;;;;;;5055289;28;20552;-68
2022/12/04 12:38:10;;;;;;;8.20;6.73;;;18.70;64.00;;;;;;5054586;28;20581;-68
2022/12/04 12:40:44;;;;;;;10.80;7.93;;;18.70;64.10;;;;;;5066865;28;20494;-70
2022/12/04 12:43:19;;;;;;;10.83;6.60;;;18.70;64.10;;;;;;5066673;28;20443;-69
2022/12/04 12:45:52;;;;;;;7.93;6.23;;;18.70;64.10;;;;;;5056170;28;20569;-69
2022/12/04 12:48:28;;;;;;;10.73;6.47;;;18.70;64.00;;;;;;5063250;28;20479;-68
2022/12/04 12:51:02;;;;;;;8.20;5.87;;;18.80;64.00;;;;;;5055756;28;20494;-69
2022/12/04 12:53:53;;;;;;;10.93;7.40;;;18.80;63.90;;;;;;5056971;28;20462;-68
2022/12/04 12:56:32;;;;;;;10.23;7.23;;;18.80;63.90;;;;;;5056442;28;20838;-69
2022/12/04 12:59:04;;;;;;;8.97;7.07;;;18.80;63.90;;;;;;5057790;28;20554;-67
2022/12/04 13:01:43;;;;;;;10.27;5.63;;;18.80;63.60;;;;;;5060860;28;20459;-67
2022/12/04 13:04:18;;;;;;;7.93;7.20;;;18.80;63.60;;;;;;5060611;28;20545;-67
2022/12/04 13:06:52;;;;;;;10.63;7.43;;;18.80;63.60;;;;;;5073926;28;20445;-67
2022/12/04 13:09:25;;;;;;;8.33;7.23;;;18.80;63.40;;;;;;5073877;28;20498;-67
2022/12/04 13:12:03;;;;;;;7.87;6.90;;;18.80;63.30;;;;;;5074578;28;20534;-67
2022/12/04 13:14:31;;;;;;;9.10;7.40;;;18.80;63.10;;;;;;5074715;28;20442;-67
2022/12/04 13:17:03;;;;;;;10.63;7.17;;;18.80;63.00;;;;;;5069423;28;20455;-68
2022/12/04 13:19:35;;;;;;;9.93;7.20;;;18.80;62.90;;;;;;5059888;28;20675;-68
2022/12/04 13:22:14;;;;;;;9.27;7.60;;;18.80;62.80;;;;;;5059182;28;20515;-68